Time;durP1;ratioP1;P1;durP2;ratioP2;P2;SDS_P1;SDS_P2;PMS_P1;PMS_P2;Temp;Humidity;BMP_temperature;BMP_pressure;BME280_temperature;BME280_humidity;BME280_pressure;Samples;Min_cycle;Max_cycle;Signal;HPM_P1;HPM_P2
2022/10/07 00:01:17;;;;;;;;;;;;;;;9.62;71.19;102418.44;5067573;28;20314;-68
2022/10/07 00:03:43;;;;;;;;;;;;;;;9.63;70.44;102414.94;5070165;28;19928;-68
2022/10/07 00:06:12;;;;;;;;;;;;;;;9.65;69.97;102414.00;5068483;28;20143;-68
2022/10/07 00:08:40;;;;;;;;;;;;;;;9.75;70.05;102418.13;5071904;28;19973;-68
2022/10/07 00:11:07;;;;;;;;;;;;;;;9.46;71.15;102411.81;5059060;28;20311;-68
2022/10/07 00:13:35;;;;;;;;;;;;;;;8.92;74.12;102418.94;5067448;28;19928;-69
2022/10/07 00:16:05;;;;;;;;;;;;;;;8.98;73.90;102414.47;5070692;28;19924;-69
2022/10/07 00:18:32;;;;;;;;;;;;;;;9.00;73.55;102417.94;5057779;28;20505;-69
2022/10/07 00:21:01;;;;;;;;;;;;;;;9.15;73.72;102417.66;5065667;28;19928;-69
2022/10/07 00:23:29;;;;;;;;;;;;;;;9.14;73.67;102407.19;5067801;28;20293;-69
2022/10/07 00:25:59;;;;;;;;;;;;;;;9.15;73.57;102406.31;5057439;28;20002;-69
2022/10/07 00:28:25;;;;;;;;;;;;;;;9.35;72.79;102395.47;5078310;28;19932;-69
2022/10/07 00:30:56;;;;;;;;;;;;;;;9.12;71.63;102401.16;5074210;28;19928;-69
2022/10/07 00:33:22;;;;;;;;;;;;;;;9.17;72.00;102404.50;5058187;28;19931;-69
2022/10/07 00:35:48;;;;;;;;;;;;;;;9.07;74.25;102393.38;5068938;28;19931;-69
2022/10/07 00:38:14;;;;;;;;;;;;;;;9.16;73.50;102387.94;5073029;28;20398;-69
2022/10/07 00:40:42;;;;;;;;;;;;;;;9.14;73.81;102387.13;5059179;28;20003;-69
2022/10/07 00:43:22;;;;;;;;;;;;;;;9.51;71.62;102391.59;5066941;28;19924;-69
2022/10/07 00:45:48;;;;;;;;;;;;;;;9.69;70.95;102378.13;5057993;28;19931;-69
2022/10/07 00:48:15;;;;;;;;;;;;;;;9.20;72.50;102378.31;5068930;28;19931;-69
2022/10/07 00:50:42;;;;;;;;;;;;;;;9.08;73.03;102378.53;5068253;28;19924;-69
2022/10/07 00:53:09;;;;;;;;;;;;;;;9.27;71.51;102379.91;5059156;28;19953;-69
2022/10/07 00:55:35;;;;;;;;;;;;;;;9.53;70.73;102369.75;5068937;28;19931;-69
2022/10/07 00:58:08;;;;;;;;;;;;;;;9.34;70.90;102370.16;5066867;28;19925;-68
2022/10/07 01:00:34;;;;;;;;;;;;;;;8.99;70.98;102363.00;5058010;28;20402;-68
2022/10/07 01:03:00;;;;;;;;;;;;;;;8.76;71.21;102361.69;5086756;28;19927;-68
2022/10/07 01:05:27;;;;;;;;;;;;;;;8.84;71.91;102365.91;5068469;28;19939;-68
2022/10/07 01:07:53;;;;;;;;;;;;;;;8.67;72.61;102367.09;5058484;28;19925;-69
2022/10/07 01:10:21;;;;;;;;;;;;;;;8.51;73.08;102365.63;5068599;28;20015;-68
2022/10/07 01:12:56;;;;;;;;;;;;;;;8.25;75.15;102354.72;5068967;28;19955;-68
2022/10/07 01:15:28;;;;;;;;;;;;;;;8.58;75.02;102359.41;5058200;28;19939;-68
2022/10/07 01:18:01;;;;;;;;;;;;;;;8.71;73.95;102341.75;5067201;28;19928;-68
2022/10/07 01:20:35;;;;;;;;;;;;;;;8.97;71.87;102343.88;5058221;28;19950;-68
2022/10/07 01:23:17;;;;;;;;;;;;;;;9.51;70.43;102342.72;5067865;28;19928;-68
2022/10/07 01:25:52;;;;;;;;;;;;;;;9.48;70.78;102350.66;5058035;28;20401;-68
2022/10/07 01:28:22;;;;;;;;;;;;;;;8.90;73.29;102337.03;5067344;28;19924;-68
2022/10/07 01:30:51;;;;;;;;;;;;;;;8.99;72.46;102335.09;5055287;28;19924;-68
2022/10/07 01:33:20;;;;;;;;;;;;;;;8.27;74.04;102329.44;5062573;28;19944;-68
2022/10/07 01:35:48;;;;;;;;;;;;;;;8.31;74.71;102325.91;5067176;28;19924;-68
2022/10/07 01:38:17;;;;;;;;;;;;;;;8.31;73.99;102329.38;5058236;28;20332;-68
2022/10/07 01:40:46;;;;;;;;;;;;;;;8.47;73.33;102324.75;5068029;28;19924;-69
2022/10/07 01:43:14;;;;;;;;;;;;;;;8.49;73.40;102317.75;5057248;28;20015;-68
2022/10/07 01:45:41;;;;;;;;;;;;;;;8.31;72.53;102324.16;5050492;28;19931;-68
2022/10/07 01:48:08;;;;;;;;;;;;;;;8.36;72.67;102318.84;5067488;28;20003;-68
2022/10/07 01:50:35;;;;;;;;;;;;;;;8.21;71.96;102313.84;5066620;28;20203;-68
2022/10/07 01:53:11;;;;;;;;;;;;;;;8.36;71.98;102305.78;5057831;28;19924;-68
2022/10/07 01:55:45;;;;;;;;;;;;;;;8.46;72.13;102309.09;5067787;28;19992;-68
2022/10/07 01:58:18;;;;;;;;;;;;;;;8.16;72.27;102306.09;5062767;28;19928;-68
2022/10/07 02:00:47;;;;;;;;;;;;;;;8.12;73.22;102306.19;5067582;28;19925;-68
2022/10/07 02:03:24;;;;;;;;;;;;;;;8.31;72.44;102305.84;5058525;28;20269;-68
2022/10/07 02:05:53;;;;;;;;;;;;;;;8.23;72.38;102294.66;5061981;28;20552;-68
2022/10/07 02:08:24;;;;;;;;;;;;;;;8.46;71.65;102289.03;5066811;28;19924;-68
2022/10/07 02:11:00;;;;;;;;;;;;;;;9.05;70.87;102294.88;5058137;28;19931;-68
2022/10/07 02:13:29;;;;;;;;;;;;;;;8.72;72.32;102297.25;5064765;28;19928;-68
2022/10/07 02:15:59;;;;;;;;;;;;;;;8.27;72.35;102298.09;5067528;28;20238;-68
2022/10/07 02:18:28;;;;;;;;;;;;;;;8.36;72.75;102286.63;5057250;28;19924;-68
2022/10/07 02:20:55;;;;;;;;;;;;;;;8.18;72.41;102293.00;5066619;28;20350;-68
2022/10/07 02:23:22;;;;;;;;;;;;;;;7.93;71.77;102283.84;5068549;28;19958;-68
2022/10/07 02:25:50;;;;;;;;;;;;;;;8.00;72.07;102282.88;5067378;28;20103;-68
2022/10/07 02:28:18;;;;;;;;;;;;;;;8.41;71.47;102269.09;5067137;28;19928;-68
2022/10/07 02:30:47;;;;;;;;;;;;;;;8.23;71.97;102272.88;5059442;28;20390;-68
2022/10/07 02:33:15;;;;;;;;;;;;;;;8.09;72.91;102272.28;5067961;28;19932;-68
2022/10/07 02:35:43;;;;;;;;;;;;;;;8.16;72.75;102271.28;5066829;28;20314;-67
2022/10/07 02:38:11;;;;;;;;;;;;;;;8.62;71.19;102274.78;5061383;28;19924;-68
2022/10/07 02:40:42;;;;;;;;;;;;;;;8.31;73.32;102268.44;5071560;28;20006;-68
2022/10/07 02:43:13;;;;;;;;;;;;;;;8.21;74.55;102265.06;5070180;28;20367;-68
2022/10/07 02:45:41;;;;;;;;;;;;;;;7.72;74.34;102265.00;5059543;28;19928;-68
2022/10/07 02:48:13;;;;;;;;;;;;;;;8.06;74.47;102267.06;5070912;28;19924;-68
2022/10/07 02:50:44;;;;;;;;;;;;;;;8.14;75.30;102259.97;5070920;28;19963;-68
2022/10/07 02:53:12;;;;;;;;;;;;;;;8.11;74.79;102260.03;5071301;28;19925;-68
2022/10/07 02:55:38;;;;;;;;;;;;;;;8.19;73.46;102248.56;5081411;28;20382;-68
2022/10/07 02:58:07;;;;;;;;;;;;;;;8.06;72.91;102252.25;5080767;28;20315;-68
2022/10/07 03:00:37;;;;;;;;;;;;;;;8.53;71.58;102259.28;5070807;28;19931;-68
2022/10/07 03:03:04;;;;;;;;;;;;;;;8.92;71.00;102254.16;5080355;28;19932;-68
2022/10/07 03:05:32;;;;;;;;;;;;;;;8.60;72.59;102249.56;5060687;28;19931;-68
2022/10/07 03:08:01;;;;;;;;;;;;;;;8.32;72.19;102244.00;5070194;28;20006;-68
2022/10/07 03:10:28;;;;;;;;;;;;;;;8.42;72.11;102248.19;5054773;28;19960;-68
2022/10/07 03:12:54;;;;;;;;;;;;;;;8.21;72.63;102241.53;5042007;28;19970;-68
2022/10/07 03:15:21;;;;;;;;;;;;;;;8.08;74.16;102236.56;5064025;28;19928;-68
2022/10/07 03:17:47;;;;;;;;;;;;;;;8.09;73.17;102241.75;5070608;28;20394;-68
2022/10/07 03:20:13;;;;;;;;;;;;;;;8.15;72.36;102240.81;5053129;28;19928;-67
2022/10/07 03:22:41;;;;;;;;;;;;;;;8.04;74.26;102227.94;5069008;28;19924;-68
2022/10/07 03:25:09;;;;;;;;;;;;;;;8.01;73.37;102232.34;5071303;28;20370;-68
2022/10/07 03:27:35;;;;;;;;;;;;;;;7.88;73.26;102229.06;5060452;28;20411;-68
2022/10/07 03:30:01;;;;;;;;;;;;;;;7.82;74.62;102227.44;5070314;28;19931;-68
2022/10/07 03:32:28;;;;;;;;;;;;;;;7.86;75.60;102232.59;5070527;28;20391;-68
2022/10/07 03:34:54;;;;;;;;;;;;;;;7.85;74.99;102226.53;5060409;28;19986;-68
2022/10/07 03:37:21;;;;;;;;;;;;;;;7.45;75.00;102226.31;5073263;28;20406;-68
2022/10/07 03:39:47;;;;;;;;;;;;;;;7.80;75.35;102228.34;5090479;28;19984;-68
2022/10/07 03:42:15;;;;;;;;;;;;;;;7.99;74.28;102227.13;5080481;28;20302;-68
2022/10/07 03:44:42;;;;;;;;;;;;;;;7.98;72.58;102221.97;5091541;28;19924;-68
2022/10/07 03:47:08;;;;;;;;;;;;;;;7.88;72.57;102230.81;5064671;28;19924;-68
2022/10/07 03:49:34;;;;;;;;;;;;;;;7.63;74.64;102220.78;5059287;28;19931;-68
2022/10/07 03:52:01;;;;;;;;;;;;;;;7.76;74.60;102209.25;5069791;28;19928;-68
2022/10/07 03:54:28;;;;;;;;;;;;;;;7.74;73.25;102216.25;5068632;28;19924;-68
2022/10/07 03:56:54;;;;;;;;;;;;;;;7.32;75.81;102220.38;5057576;28;19925;-68
2022/10/07 03:59:22;;;;;;;;;;;;;;;7.22;77.22;102215.34;5069079;28;19947;-68
2022/10/07 04:01:48;;;;;;;;;;;;;;;7.06;77.79;102211.25;5072795;28;19924;-68
2022/10/07 04:04:15;;;;;;;;;;;;;;;7.12;77.81;102203.31;5059818;28;20315;-68
2022/10/07 04:06:42;;;;;;;;;;;;;;;7.44;75.98;102195.88;5061815;28;19955;-68
2022/10/07 04:09:08;;;;;;;;;;;;;;;7.51;76.06;102191.41;5068512;28;19929;-68
2022/10/07 04:11:34;;;;;;;;;;;;;;;7.26;76.02;102198.75;5058648;28;19924;-68
2022/10/07 04:14:01;;;;;;;;;;;;;;;7.08;76.56;102199.88;5069840;28;19924;-67
2022/10/07 04:16:28;;;;;;;;;;;;;;;7.03;78.25;102193.00;5063928;28;20339;-67
2022/10/07 04:18:55;;;;;;;;;;;;;;;7.45;77.49;102197.59;5058740;28;19931;-67
2022/10/07 04:21:22;;;;;;;;;;;;;;;7.70;75.82;102196.31;5084933;28;19924;-67
2022/10/07 04:23:48;;;;;;;;;;;;;;;7.47;74.01;102195.81;5088848;28;19930;-67
2022/10/07 04:26:14;;;;;;;;;;;;;;;7.72;73.78;102191.91;5087005;28;19931;-67
2022/10/07 04:28:41;;;;;;;;;;;;;;;7.55;73.22;102186.13;5083174;28;20356;-67
2022/10/07 04:31:08;;;;;;;;;;;;;;;7.54;74.32;102189.59;5068385;28;19928;-68
2022/10/07 04:33:38;;;;;;;;;;;;;;;7.61;74.50;102187.78;5069570;28;19924;-68
2022/10/07 04:36:05;;;;;;;;;;;;;;;7.63;73.52;102181.63;5087860;28;19967;-68
2022/10/07 04:38:32;;;;;;;;;;;;;;;7.66;73.26;102184.19;5088775;28;20268;-68
2022/10/07 04:40:58;;;;;;;;;;;;;;;7.51;73.70;102178.34;5064523;28;19927;-68
2022/10/07 04:43:26;;;;;;;;;;;;;;;7.64;73.75;102179.88;5069118;28;19928;-68
2022/10/07 04:45:53;;;;;;;;;;;;;;;7.75;73.06;102189.28;5068976;28;19924;-67
2022/10/07 04:48:20;;;;;;;;;;;;;;;7.73;72.42;102188.41;5058192;28;20316;-67
2022/10/07 04:50:50;;;;;;;;;;;;;;;7.30;73.55;102175.22;5068504;28;19924;-67
2022/10/07 04:53:17;;;;;;;;;;;;;;;7.49;72.93;102169.69;5067924;28;19928;-67
2022/10/07 04:55:45;;;;;;;;;;;;;;;7.18;72.22;102169.31;5057971;28;19931;-67
2022/10/07 04:58:11;;;;;;;;;;;;;;;7.03;73.17;102169.53;5069906;28;20376;-67
2022/10/07 05:00:41;;;;;;;;;;;;;;;7.13;73.91;102169.38;5070370;28;19931;-67
2022/10/07 05:03:07;;;;;;;;;;;;;;;7.71;71.64;102171.06;5086341;28;19932;-67
2022/10/07 05:05:33;;;;;;;;;;;;;;;7.43;74.06;102175.88;5078132;28;20295;-67
2022/10/07 05:08:01;;;;;;;;;;;;;;;7.34;74.48;102168.19;5068969;28;19935;-67
2022/10/07 05:10:27;;;;;;;;;;;;;;;7.32;73.91;102162.13;5058980;28;20351;-68
2022/10/07 05:12:54;;;;;;;;;;;;;;;7.27;73.52;102164.81;5069389;28;19924;-68
2022/10/07 05:15:21;;;;;;;;;;;;;;;6.85;74.96;102161.09;5067117;28;19924;-68
2022/10/07 05:17:47;;;;;;;;;;;;;;;7.18;74.65;102167.56;5057958;28;19939;-68
2022/10/07 05:20:13;;;;;;;;;;;;;;;6.96;74.49;102165.28;5067584;28;19931;-68
2022/10/07 05:22:40;;;;;;;;;;;;;;;7.21;74.21;102158.81;5066275;28;19924;-68
2022/10/07 05:25:08;;;;;;;;;;;;;;;7.33;73.57;102156.03;5058461;28;19924;-68
2022/10/07 05:27:34;;;;;;;;;;;;;;;7.07;72.52;102160.78;5066271;28;20280;-68
2022/10/07 05:30:00;;;;;;;;;;;;;;;7.08;73.60;102152.06;5072915;28;19927;-68
2022/10/07 05:32:27;;;;;;;;;;;;;;;7.08;73.19;102146.84;5063656;28;19924;-68
2022/10/07 05:34:53;;;;;;;;;;;;;;;6.98;74.12;102150.50;5086694;28;19992;-70
2022/10/07 05:37:19;;;;;;;;;;;;;;;7.15;73.78;102138.91;5087448;28;20562;-70
2022/10/07 05:39:46;;;;;;;;;;;;;;;6.92;74.92;102153.16;5064596;28;19924;-70
2022/10/07 05:42:13;;;;;;;;;;;;;;;6.94;74.69;102146.19;5068610;28;20337;-70
2022/10/07 05:44:40;;;;;;;;;;;;;;;7.35;73.67;102149.06;5066694;28;19931;-70
2022/10/07 05:47:06;;;;;;;;;;;;;;;7.24;73.54;102148.34;5063362;28;19924;-70
2022/10/07 05:49:32;;;;;;;;;;;;;;;7.07;74.24;102150.34;5067976;28;20229;-70
2022/10/07 05:51:59;;;;;;;;;;;;;;;7.28;74.12;102153.47;5068098;28;19931;-70
2022/10/07 05:54:25;;;;;;;;;;;;;;;7.48;73.59;102153.16;5067356;28;19954;-70
2022/10/07 05:56:51;;;;;;;;;;;;;;;7.58;72.52;102153.88;5056172;28;20376;-70
2022/10/07 05:59:19;;;;;;;;;;;;;;;7.36;72.87;102158.56;5066240;28;19932;-70
2022/10/07 06:01:46;;;;;;;;;;;;;;;7.79;73.77;102150.91;5067749;28;20012;-70
2022/10/07 06:04:12;;;;;;;;;;;;;;;8.51;72.80;102143.41;5066767;28;20353;-69
2022/10/07 06:06:39;;;;;;;;;;;;;;;8.89;71.28;102136.50;5066204;28;19924;-69
2022/10/07 06:14:34;;;;;;;;;;;;;;;8.91;70.24;102129.47;5061179;28;19931;-67
2022/10/07 06:17:00;;;;;;;;;;;;;;;8.76;71.03;102130.66;5070907;28;20399;-67
2022/10/07 06:19:27;;;;;;;;;;;;;;;8.48;71.96;102134.78;5069389;28;19931;-66
2022/10/07 06:21:53;;;;;;;;;;;;;;;8.95;71.69;102125.88;5057257;28;19935;-66
2022/10/07 06:24:19;;;;;;;;;;;;;;;9.73;70.55;102126.56;5071727;28;20383;-66
2022/10/07 06:26:46;;;;;;;;;;;;;;;9.42;70.82;102122.16;5070892;28;19931;-66
2022/10/07 06:29:12;;;;;;;;;;;;;;;9.30;73.05;102133.78;5061803;28;20539;-66
2022/10/07 06:31:40;;;;;;;;;;;;;;;9.28;74.11;102131.19;5072181;28;19974;-66
2022/10/07 06:34:06;;;;;;;;;;;;;;;9.18;74.71;102128.84;5069334;28;19924;-66
2022/10/07 06:36:32;;;;;;;;;;;;;;;9.86;73.79;102136.72;5061239;28;20319;-67
2022/10/07 06:38:59;;;;;;;;;;;;;;;10.48;70.90;102133.25;5071504;28;19935;-67
2022/10/07 06:41:25;;;;;;;;;;;;;;;10.83;69.29;102126.09;5068900;28;20536;-67
2022/10/07 06:43:54;;;;;;;;;;;;;;;11.16;69.00;102131.13;5061102;28;19931;-67
2022/10/07 06:46:20;;;;;;;;;;;;;;;11.58;66.72;102123.59;5071727;28;19924;-67
2022/10/07 06:48:49;;;;;;;;;;;;;;;10.72;69.23;102129.03;5071420;28;19924;-68
2022/10/07 06:51:16;;;;;;;;;;;;;;;11.64;67.36;102127.81;5060218;28;19931;-68
2022/10/07 06:53:42;;;;;;;;;;;;;;;11.80;66.50;102126.38;5070721;28;19928;-68
2022/10/07 06:56:11;;;;;;;;;;;;;;;11.88;65.34;102128.75;5069935;28;19931;-69
2022/10/07 06:58:37;;;;;;;;;;;;;;;11.55;66.19;102118.47;5060312;28;19924;-70
2022/10/07 07:01:04;;;;;;;;;;;;;;;11.35;66.74;102128.75;5070783;28;19928;-69
2022/10/07 07:03:31;;;;;;;;;;;;;;;11.62;65.69;102121.72;5070623;28;19969;-69
2022/10/07 07:05:59;;;;;;;;;;;;;;;12.13;65.10;102126.97;5072171;28;19924;-70
2022/10/07 07:08:26;;;;;;;;;;;;;;;12.41;64.38;102116.31;5071193;28;19947;-69
2022/10/07 07:10:53;;;;;;;;;;;;;;;12.79;65.34;102120.09;5070871;28;19924;-69
2022/10/07 07:13:19;;;;;;;;;;;;;;;12.85;63.62;102117.22;5060277;28;19960;-69
2022/10/07 07:15:54;;;;;;;;;;;;;;;13.29;63.37;102124.25;5071203;28;19924;-70
2022/10/07 07:18:20;;;;;;;;;;;;;;;13.68;62.75;102129.59;5080059;28;19932;-69
2022/10/07 07:20:47;;;;;;;;;;;;;;;14.77;59.12;102118.56;5074858;28;19924;-69
2022/10/07 07:23:14;;;;;;;;;;;;;;;14.95;57.63;102110.63;5076253;28;20320;-69
2022/10/07 07:25:43;;;;;;;;;;;;;;;14.21;60.01;102116.72;5070604;28;19924;-69
2022/10/07 07:28:09;;;;;;;;;;;;;;;14.62;60.34;102117.50;5059311;28;19951;-69
2022/10/07 07:30:38;;;;;;;;;;;;;;;14.58;60.19;102116.78;5052098;28;20039;-69
2022/10/07 07:33:04;;;;;;;;;;;;;;;14.81;59.67;102105.16;5072462;28;20383;-69
2022/10/07 07:35:31;;;;;;;;;;;;;;;15.57;57.05;102112.84;5060506;28;20367;-69
2022/10/07 07:37:58;;;;;;;;;;;;;;;15.51;57.20;102114.94;5070586;28;19927;-69
2022/10/07 07:40:26;;;;;;;;;;;;;;;15.10;58.00;102103.75;5091261;28;19928;-69
2022/10/07 07:42:54;;;;;;;;;;;;;;;16.10;57.22;102101.28;5067728;28;20380;-69
2022/10/07 07:45:21;;;;;;;;;;;;;;;16.61;53.49;102112.66;5077844;28;20367;-69
2022/10/07 07:47:48;;;;;;;;;;;;;;;16.84;54.29;102104.28;5089929;28;19924;-69
2022/10/07 07:50:17;;;;;;;;;;;;;;;17.36;52.13;102104.81;5089567;28;20014;-69
2022/10/07 07:52:43;;;;;;;;;;;;;;;17.85;52.00;102103.59;5093650;28;19932;-69
2022/10/07 07:55:10;;;;;;;;;;;;;;;17.92;50.06;102109.41;5088497;28;19928;-69
2022/10/07 07:57:38;;;;;;;;;;;;;;;16.10;53.48;102103.91;5087124;28;20366;-69
2022/10/07 08:00:06;;;;;;;;;;;;;;;15.02;57.14;102106.75;5087832;28;19924;-68
2022/10/07 08:02:32;;;;;;;;;;;;;;;15.98;57.42;102099.25;5100527;28;20378;-68
2022/10/07 08:04:58;;;;;;;;;;;;;;;16.75;54.45;102091.53;5088667;28;19928;-69
2022/10/07 08:07:25;;;;;;;;;;;;;;;16.69;55.04;102082.16;5092612;28;20318;-69
2022/10/07 08:09:51;;;;;;;;;;;;;;;17.78;51.30;102091.66;5087100;28;19976;-69
2022/10/07 08:12:19;;;;;;;;;;;;;;;18.58;48.86;102083.16;5088565;28;20380;-68
2022/10/07 08:14:47;;;;;;;;;;;;;;;18.29;49.41;102079.63;5076965;28;19924;-68
2022/10/07 08:17:13;;;;;;;;;;;;;;;18.19;49.78;102085.63;5063608;28;20299;-69
2022/10/07 08:19:40;;;;;;;;;;;;;;;18.68;48.77;102078.09;5082863;28;19924;-69
2022/10/07 08:22:07;;;;;;;;;;;;;;;18.50;48.88;102069.47;5079317;28;20277;-69
2022/10/07 08:24:33;;;;;;;;;;;;;;;19.39;47.81;102068.88;5089893;28;19937;-69
2022/10/07 08:26:59;;;;;;;;;;;;;;;19.30;47.50;102065.97;5066110;28;20426;-69
2022/10/07 08:29:26;;;;;;;;;;;;;;;19.42;47.28;102076.69;5075936;28;19935;-68
2022/10/07 08:31:53;;;;;;;;;;;;;;;18.49;49.62;102065.09;5079861;28;19932;-68
2022/10/07 08:34:20;;;;;;;;;;;;;;;19.26;49.38;102065.34;5085382;28;19928;-68
2022/10/07 08:36:48;;;;;;;;;;;;;;;17.57;50.96;102069.09;5086653;28;19931;-68
2022/10/07 08:39:14;;;;;;;;;;;;;;;18.19;50.21;102059.94;5086513;28;19967;-68
2022/10/07 08:41:52;;;;;;;;;;;;;;;18.51;50.97;102057.94;5083671;28;19931;-69
2022/10/07 08:44:21;;;;;;;;;;;;;;;19.03;50.73;102057.22;5095493;28;19935;-69
2022/10/07 08:46:54;;;;;;;;;;;;;;;19.64;46.44;102054.78;5085375;28;19931;-69
2022/10/07 08:49:26;;;;;;;;;;;;;;;19.01;49.09;102048.47;5086376;28;20399;-69
2022/10/07 08:51:54;;;;;;;;;;;;;;;19.27;48.55;102045.78;5092917;28;19924;-68
2022/10/07 08:54:25;;;;;;;;;;;;;;;20.08;47.21;102037.50;5097145;28;20439;-69
2022/10/07 08:56:52;;;;;;;;;;;;;;;20.30;46.30;102019.94;5106700;28;19931;-68
2022/10/07 08:59:20;;;;;;;;;;;;;;;20.74;44.15;102029.16;5097691;28;19924;-68
2022/10/07 09:02:02;;;;;;;;;;;;;;;21.41;43.34;102016.09;5087310;28;20014;-68
2022/10/07 09:04:36;;;;;;;;;;;;;;;21.44;43.88;102023.84;5105649;28;20015;-68
2022/10/07 09:07:04;;;;;;;;;;;;;;;21.58;43.35;102018.31;5088411;27;19924;-69
2022/10/07 09:09:34;;;;;;;;;;;;;;;21.56;43.37;102018.44;5094365;28;19930;-69
2022/10/07 09:12:03;;;;;;;;;;;;;;;21.67;43.88;102014.91;5086784;28;19924;-69
2022/10/07 09:14:31;;;;;;;;;;;;;;;21.77;42.96;102013.22;5104085;28;20295;-69
2022/10/07 09:17:00;;;;;;;;;;;;;;;21.35;44.06;102015.63;5081422;28;19958;-69
2022/10/07 09:19:29;;;;;;;;;;;;;;;21.67;43.61;102006.91;5094810;28;19927;-69
2022/10/07 09:22:01;;;;;;;;;;;;;;;21.25;44.13;102013.75;5102092;28;19986;-69
2022/10/07 09:24:28;;;;;;;;;;;;;;;21.79;42.24;101998.81;5087350;28;20333;-69
2022/10/07 09:26:56;;;;;;;;;;;;;;;21.96;42.10;102001.97;5070297;28;19939;-69
2022/10/07 09:29:23;;;;;;;;;;;;;;;21.52;42.41;101997.44;5079851;28;19924;-69
2022/10/07 09:31:50;;;;;;;;;;;;;;;21.79;42.79;101996.13;5085922;28;19931;-69
2022/10/07 09:34:20;;;;;;;;;;;;;;;22.42;43.09;101991.97;5079535;28;19936;-69
2022/10/07 09:37:09;;;;;;;;;;;;;;;21.99;42.53;101989.22;5081641;28;19930;-69
2022/10/07 09:39:36;;;;;;;;;;;;;;;21.59;44.14;101994.16;5084759;28;19931;-69
2022/10/07 09:42:03;;;;;;;;;;;;;;;21.29;43.04;101986.72;5090552;28;20314;-69
2022/10/07 09:44:29;;;;;;;;;;;;;;;22.53;40.39;101972.38;5106881;28;19924;-69
2022/10/07 09:46:58;;;;;;;;;;;;;;;23.15;39.21;101967.13;5089939;28;19924;-69
2022/10/07 09:49:34;;;;;;;;;;;;;;;23.71;38.86;101964.94;5081285;28;19981;-69
2022/10/07 09:52:01;;;;;;;;;;;;;;;24.01;38.39;101959.56;5089454;28;19924;-69
2022/10/07 09:54:29;;;;;;;;;;;;;;;23.92;38.05;101957.69;5089716;28;19931;-69
2022/10/07 09:56:58;;;;;;;;;;;;;;;24.13;38.71;101961.16;5100292;28;20155;-69
2022/10/07 09:59:26;;;;;;;;;;;;;;;22.92;38.64;101950.34;5074815;28;19924;-69
2022/10/07 10:01:53;;;;;;;;;;;;;;;23.23;39.05;101946.78;5084411;28;20318;-69
2022/10/07 10:04:23;;;;;;;;;;;;;;;22.96;40.08;101948.25;5088443;28;19924;-69
2022/10/07 10:06:50;;;;;;;;;;;;;;;23.50;39.62;101940.03;5104658;28;20315;-69
2022/10/07 10:09:19;;;;;;;;;;;;;;;23.80;38.04;101931.16;5103691;28;20401;-69
2022/10/07 10:11:59;;;;;;;;;;;;;;;22.90;38.67;101930.91;5088236;28;20014;-69
2022/10/07 10:14:28;;;;;;;;;;;;;;;22.76;39.50;101928.56;5077995;28;20406;-68
2022/10/07 10:16:54;;;;;;;;;;;;;;;22.43;38.15;101915.31;5080336;28;19924;-68
2022/10/07 10:19:22;;;;;;;;;;;;;;;23.29;38.64;101921.28;5075009;28;19928;-69
2022/10/07 10:21:50;;;;;;;;;;;;;;;23.82;36.74;101908.59;5081972;28;19964;-69
2022/10/07 10:26:24;;;;;;;;;;;;;;;24.18;36.81;101910.69;5079362;28;19928;-69
2022/10/07 10:27:05;;;;;;;;;;;;;;;23.85;35.12;101902.09;5075079;28;19924;-69
2022/10/07 10:29:37;;;;;;;;;;;;;;;24.14;34.81;101893.19;5078718;28;19931;-69
2022/10/07 10:32:20;;;;;;;;;;;;;;;23.61;36.83;101899.78;5085197;28;20300;-69
2022/10/07 10:34:52;;;;;;;;;;;;;;;22.78;36.52;101897.19;5076749;28;19955;-68
2022/10/07 10:37:20;;;;;;;;;;;;;;;22.02;38.50;101881.31;5085066;28;19924;-69
2022/10/07 10:39:55;;;;;;;;;;;;;;;22.15;37.19;101879.31;5083659;28;19931;-69
2022/10/07 10:42:26;;;;;;;;;;;;;;;22.41;38.11;101878.00;5089712;28;19939;-69
2022/10/07 10:45:06;;;;;;;;;;;;;;;23.17;38.47;101872.34;5082359;28;19928;-69
2022/10/07 10:47:39;;;;;;;;;;;;;;;23.28;35.01;101866.09;5073618;28;19959;-69
2022/10/07 10:50:13;;;;;;;;;;;;;;;23.83;34.79;101861.22;5084551;28;19939;-69
2022/10/07 10:52:45;;;;;;;;;;;;;;;23.69;34.10;101854.41;5085301;28;19928;-68
2022/10/07 10:55:26;;;;;;;;;;;;;;;23.83;33.02;101846.00;5085171;28;20657;-68
2022/10/07 10:58:01;;;;;;;;;;;;;;;24.09;33.50;101849.00;5082715;28;19928;-68
2022/10/07 11:00:32;;;;;;;;;;;;;;;23.93;32.52;101846.88;5088439;28;20272;-68
2022/10/07 11:03:07;;;;;;;;;;;;;;;24.10;31.49;101843.50;5091690;28;19932;-69
2022/10/07 11:05:35;;;;;;;;;;;;;;;24.30;34.05;101835.50;5078126;28;19931;-69
2022/10/07 11:08:04;;;;;;;;;;;;;;;24.64;34.10;101826.03;5070175;28;19986;-69
2022/10/07 11:10:34;;;;;;;;;;;;;;;25.11;30.30;101830.44;5087278;28;20360;-69
2022/10/07 11:13:07;;;;;;;;;;;;;;;24.59;31.29;101828.28;5088009;28;19924;-68
2022/10/07 11:15:36;;;;;;;;;;;;;;;23.79;31.80;101823.16;5089029;28;19928;-69
2022/10/07 11:18:06;;;;;;;;;;;;;;;24.19;32.15;101823.94;5087084;28;19924;-69
2022/10/07 11:20:34;;;;;;;;;;;;;;;23.92;31.75;101814.84;5096069;28;19955;-69
2022/10/07 11:23:03;;;;;;;;;;;;;;;24.07;31.65;101813.44;5088468;28;19931;-69
2022/10/07 11:25:33;;;;;;;;;;;;;;;24.32;31.04;101807.56;5075994;28;19935;-69
2022/10/07 11:28:07;;;;;;;;;;;;;;;24.37;29.72;101809.81;5067850;28;20434;-69
2022/10/07 11:30:37;;;;;;;;;;;;;;;24.08;32.67;101801.75;5086168;28;19975;-69
2022/10/07 11:33:07;;;;;;;;;;;;;;;23.85;31.05;101795.81;5081467;28;19924;-69
2022/10/07 11:35:34;;;;;;;;;;;;;;;24.18;31.34;101787.41;5093245;28;19932;-69
2022/10/07 11:38:03;;;;;;;;;;;;;;;24.53;30.65;101781.44;5084571;28;19924;-69
2022/10/07 11:40:30;;;;;;;;;;;;;;;24.82;31.89;101778.69;5086850;28;19928;-69
2022/10/07 11:43:04;;;;;;;;;;;;;;;24.93;28.81;101765.13;5088364;28;19978;-69
2022/10/07 11:45:37;;;;;;;;;;;;;;;24.15;31.23;101760.03;5081432;28;19925;-69
2022/10/07 11:48:07;;;;;;;;;;;;;;;23.00;31.96;101768.66;5092445;28;20395;-69
2022/10/07 11:50:36;;;;;;;;;;;;;;;23.00;33.96;101768.66;5086819;28;20136;-69
2022/10/07 11:53:06;;;;;;;;;;;;;;;23.08;33.08;101763.47;5088499;28;19927;-69
2022/10/07 11:55:34;;;;;;;;;;;;;;;23.07;34.03;101753.75;5088478;28;19924;-69
2022/10/07 11:58:02;;;;;;;;;;;;;;;23.55;34.62;101740.53;5074115;28;20437;-68
2022/10/07 12:00:30;;;;;;;;;;;;;;;23.83;34.55;101746.91;5076167;28;19928;-68
2022/10/07 12:03:10;;;;;;;;;;;;;;;24.23;34.85;101728.88;5088782;28;19928;-68
2022/10/07 12:06:03;;;;;;;;;;;;;;;24.33;32.59;101726.16;5073184;28;19924;-68
2022/10/07 12:08:31;;;;;;;;;;;;;;;24.57;34.52;101712.28;5083769;28;19935;-68
2022/10/07 12:11:13;;;;;;;;;;;;;;;23.59;32.96;101720.53;5077094;28;19931;-69
2022/10/07 12:13:40;;;;;;;;;;;;;;;23.40;34.20;101715.09;5086141;28;20443;-69
2022/10/07 12:16:24;;;;;;;;;;;;;;;23.35;32.13;101709.34;5086999;28;19947;-69
2022/10/07 12:19:14;;;;;;;;;;;;;;;23.73;33.24;101703.19;5068711;28;20303;-69
2022/10/07 12:21:56;;;;;;;;;;;;;;;23.94;33.31;101693.19;5087763;28;19934;-69
2022/10/07 12:24:22;;;;;;;;;;;;;;;24.02;32.66;101685.25;5086617;28;19960;-69
2022/10/07 12:26:50;;;;;;;;;;;;;;;23.65;32.77;101687.81;5088931;28;19935;-69
2022/10/07 12:29:24;;;;;;;;;;;;;;;23.08;35.00;101687.72;5087664;28;20436;-69
2022/10/07 12:31:51;;;;;;;;;;;;;;;22.80;34.27;101671.44;5087982;28;19931;-69
2022/10/07 12:34:38;;;;;;;;;;;;;;;23.09;34.44;101676.06;5077586;28;20007;-69
2022/10/07 12:37:23;;;;;;;;;;;;;;;23.81;34.13;101668.50;5104231;28;19931;-69
2022/10/07 12:39:49;;;;;;;;;;;;;;;23.87;32.13;101657.25;5106486;28;19927;-69
2022/10/07 12:42:16;;;;;;;;;;;;;;;23.99;34.11;101655.22;5098514;28;20458;-69
2022/10/07 12:44:46;;;;;;;;;;;;;;;23.92;31.43;101654.97;5094658;28;20294;-69
2022/10/07 12:47:18;;;;;;;;;;;;;;;24.09;34.17;101643.50;5085340;28;20372;-69
2022/10/07 12:49:48;;;;;;;;;;;;;;;23.25;32.92;101653.09;5067878;28;19928;-70
2022/10/07 12:52:18;;;;;;;;;;;;;;;21.93;34.23;101653.25;5075285;28;19924;-69
2022/10/07 12:54:48;;;;;;;;;;;;;;;21.54;34.81;101645.91;5105070;28;19924;-69
2022/10/07 12:57:18;;;;;;;;;;;;;;;22.37;35.28;101649.44;5106980;28;19924;-69